Terminal Aerodrome Forecast
Issued by NWS

Home | Current Version | Previous Version | Text Only | Print | Product List | Glossary On
Versions: 1 2 3 4 5 6 7 8 9 10 11 12 13 14 15 16 17 18 19 20 21 22
000
FTUS41 KBGM 230833 AAA
TAFRME
TAF AMD
KRME 230833Z 2309/2406 10010KT P6SM OVC015
     FM231200 09011G20KT P6SM OVC040
     FM231800 08014G24KT P6SM -RA OVC050
     FM232100 07014G25KT 5SM -RAPL OVC025
     FM240400 06010KT 2SM -PL OVC015=

USA.gov is the U.S. government's official web portal to all federal, state and local government web resources and services.